createdAt,value
2022-08-17T00:01:46.453Z,21.50
2022-08-17T00:04:44.860Z,21.50
2022-08-17T00:07:36.371Z,21.40
2022-08-17T00:10:26.163Z,21.50
2022-08-17T00:13:17.871Z,21.40
2022-08-17T00:16:07.247Z,21.40
2022-08-17T00:19:06.775Z,21.30
2022-08-17T00:22:33.615Z,21.30
2022-08-17T00:25:12.298Z,21.20
2022-08-17T00:28:00.345Z,21.10
2022-08-17T00:30:53.169Z,21.10
2022-08-17T00:33:43.896Z,21.10
2022-08-17T00:36:31.939Z,21.10
2022-08-17T00:39:21.298Z,21.00
2022-08-17T00:42:14.385Z,21.10
2022-08-17T00:45:09.843Z,21.00
2022-08-17T00:47:57.842Z,21.00
2022-08-17T00:50:50.445Z,21.00
2022-08-17T00:53:42.083Z,21.00
2022-08-17T00:56:34.604Z,20.90
2022-08-17T00:59:24.318Z,21.00
2022-08-17T01:02:14.383Z,20.90
2022-08-17T01:05:02.620Z,21.40
2022-08-17T01:07:51.131Z,21.00
2022-08-17T01:10:58.444Z,22.10
2022-08-17T01:13:51.043Z,20.90
2022-08-17T01:16:41.598Z,20.90
2022-08-17T01:19:31.697Z,21.10
2022-08-17T01:22:22.737Z,21.50
2022-08-17T01:25:12.805Z,20.80
2022-08-17T01:28:00.902Z,20.80
2022-08-17T01:30:57.284Z,20.80
2022-08-17T01:33:47.769Z,20.80
2022-08-17T01:36:38.139Z,20.80
2022-08-17T01:39:30.794Z,20.70
2022-08-17T01:42:24.922Z,20.70
2022-08-17T01:45:15.214Z,20.70
2022-08-17T01:48:03.321Z,21.20
2022-08-17T01:50:54.158Z,20.60
2022-08-17T01:53:43.907Z,20.70
2022-08-17T01:56:34.838Z,20.70
2022-08-17T01:59:22.150Z,20.70
2022-08-17T02:02:10.592Z,20.60
2022-08-17T02:05:00.491Z,19.00
2022-08-17T02:08:00.448Z,21.00
2022-08-17T02:10:49.585Z,21.80
2022-08-17T02:13:41.143Z,20.60
2022-08-17T02:16:29.473Z,20.70
2022-08-17T02:19:27.746Z,20.60
2022-08-17T02:22:18.533Z,20.60
2022-08-17T02:25:07.071Z,20.60
2022-08-17T02:27:57.492Z,20.50
2022-08-17T02:30:59.468Z,21.60
2022-08-17T02:34:03.331Z,20.40
2022-08-17T02:36:53.623Z,20.90
2022-08-17T02:39:41.902Z,20.50
2022-08-17T02:42:34.121Z,20.30
2022-08-17T02:45:26.631Z,20.40
2022-08-17T02:48:16.623Z,20.50
2022-08-17T02:51:20.307Z,20.40
2022-08-17T02:54:41.430Z,20.40
2022-08-17T02:57:15.968Z,20.40
2022-08-17T03:00:03.937Z,20.30
2022-08-17T03:02:52.731Z,21.90
2022-08-17T03:05:42.330Z,21.10
2022-08-17T03:08:36.786Z,20.40
2022-08-17T03:11:40.157Z,20.20
2022-08-17T03:14:38.178Z,20.30
2022-08-17T03:17:31.823Z,20.30
2022-08-17T03:20:21.568Z,19.50
2022-08-17T03:23:11.426Z,20.50
2022-08-17T03:26:00.420Z,22.30
2022-08-17T03:28:57.811Z,20.40
2022-08-17T03:31:49.787Z,20.60
2022-08-17T03:34:39.361Z,20.60
2022-08-17T03:37:27.533Z,20.60
2022-08-17T03:40:57.941Z,20.70
2022-08-17T03:43:49.309Z,20.70
2022-08-17T03:46:59.090Z,20.80
2022-08-17T03:53:30.701Z,21.60
2022-08-17T03:57:06.838Z,20.90
2022-08-17T03:59:57.054Z,20.70
2022-08-17T04:02:51.553Z,20.70
2022-08-17T04:05:43.232Z,21.30
2022-08-17T04:08:37.567Z,20.90
2022-08-17T04:11:30.397Z,19.20
2022-08-17T04:14:24.629Z,20.70
2022-08-17T04:17:13.751Z,20.10
2022-08-17T04:20:13.794Z,20.70
2022-08-17T04:23:07.257Z,20.90
2022-08-17T04:25:59.044Z,20.70
2022-08-17T04:28:48.779Z,20.90
2022-08-17T04:31:37.324Z,19.70
2022-08-17T04:34:25.473Z,20.50
2022-08-17T04:37:13.610Z,20.50
2022-08-17T04:40:21.294Z,20.40
2022-08-17T04:43:11.241Z,20.50
2022-08-17T04:46:01.172Z,20.40
2022-08-17T04:48:57.491Z,20.20
2022-08-17T04:51:54.753Z,20.30
2022-08-17T04:54:44.808Z,20.20
2022-08-17T04:57:38.445Z,21.80
2022-08-17T05:00:31.196Z,20.50
2022-08-17T05:03:23.003Z,19.90
2022-08-17T05:06:23.774Z,19.90
2022-08-17T05:09:17.835Z,19.90
2022-08-17T05:12:06.244Z,19.70
2022-08-17T05:15:01.963Z,19.70
2022-08-17T05:17:49.538Z,19.60
2022-08-17T05:20:40.119Z,19.50
2022-08-17T05:23:42.765Z,19.60
2022-08-17T05:26:33.710Z,19.50
2022-08-17T05:29:35.309Z,19.50
2022-08-17T05:32:39.363Z,19.50
2022-08-17T05:35:29.904Z,19.50
2022-08-17T05:38:20.338Z,19.50
2022-08-17T05:41:09.442Z,19.60
2022-08-17T05:44:00.462Z,19.90
2022-08-17T05:46:54.428Z,19.70
2022-08-17T05:49:44.586Z,19.70
2022-08-17T05:52:41.225Z,19.90
2022-08-17T05:55:42.563Z,19.70
2022-08-17T05:58:39.560Z,19.10
2022-08-17T06:01:31.834Z,19.80
2022-08-17T06:04:26.387Z,20.00
2022-08-17T06:07:19.172Z,19.80
2022-08-17T06:10:12.621Z,19.80
2022-08-17T06:13:09.666Z,19.80
2022-08-17T06:16:03.326Z,19.90
2022-08-17T06:18:57.926Z,20.00
2022-08-17T06:21:47.895Z,19.90
2022-08-17T06:24:42.659Z,19.80
2022-08-17T06:27:33.207Z,19.90
2022-08-17T06:30:27.818Z,20.10
2022-08-17T06:33:18.739Z,19.80
2022-08-17T06:36:15.918Z,19.90
2022-08-17T06:39:25.469Z,19.90
2022-08-17T06:43:05.243Z,20.00
2022-08-17T06:45:44.434Z,20.40
2022-08-17T06:48:37.996Z,21.30
2022-08-17T06:51:32.101Z,19.80
2022-08-17T06:54:22.486Z,20.50
2022-08-17T06:57:15.722Z,19.60
2022-08-17T07:00:11.410Z,19.70
2022-08-17T07:03:08.285Z,19.60
2022-08-17T07:05:59.247Z,18.60
2022-08-17T07:08:52.242Z,19.30
2022-08-17T07:11:49.553Z,19.20
2022-08-17T07:14:41.959Z,19.10
2022-08-17T07:17:47.760Z,19.00
2022-08-17T07:20:43.053Z,18.90
2022-08-17T07:23:40.314Z,18.90
2022-08-17T07:26:28.894Z,18.80
2022-08-17T07:29:20.726Z,18.80
2022-08-17T07:32:09.290Z,18.80
2022-08-17T07:35:07.689Z,18.70
2022-08-17T07:38:24.392Z,18.70
2022-08-17T07:41:14.598Z,18.70
2022-08-17T07:44:02.479Z,18.60
2022-08-17T07:47:10.556Z,18.50
2022-08-17T07:49:58.484Z,18.40
2022-08-17T07:52:50.916Z,18.40
2022-08-17T07:55:42.064Z,18.40
2022-08-17T07:58:29.857Z,18.40
2022-08-17T08:01:21.032Z,18.20
2022-08-17T08:04:29.177Z,19.60
2022-08-17T08:07:29.638Z,18.20
2022-08-17T08:10:28.571Z,18.90
2022-08-17T08:13:26.059Z,18.20
2022-08-17T08:16:25.670Z,18.10
2022-08-17T08:19:20.914Z,18.50
2022-08-17T08:22:11.379Z,18.10
2022-08-17T08:25:05.738Z,18.00
2022-08-17T08:28:01.482Z,18.00
2022-08-17T08:30:53.562Z,18.60
2022-08-17T08:33:45.776Z,18.00
2022-08-17T08:36:57.053Z,18.10
2022-08-17T08:39:52.915Z,18.30
2022-08-17T08:42:46.938Z,16.40
2022-08-17T08:45:39.512Z,18.20
2022-08-17T08:48:53.156Z,18.30
2022-08-17T08:51:48.851Z,18.30
2022-08-17T08:54:40.535Z,18.30
2022-08-17T08:57:44.386Z,18.40
2022-08-17T09:00:35.945Z,18.40
2022-08-17T09:03:52.262Z,18.50
2022-08-17T09:06:46.699Z,18.40
2022-08-17T09:09:41.083Z,18.50
2022-08-17T09:12:33.736Z,18.50
2022-08-17T09:15:27.844Z,18.50
2022-08-17T09:19:03.327Z,18.50
2022-08-17T09:21:33.667Z,18.50
2022-08-17T09:24:25.151Z,18.60
2022-08-17T09:27:15.260Z,18.60
2022-08-17T09:30:08.429Z,18.50
2022-08-17T09:32:59.097Z,18.40
2022-08-17T09:35:49.477Z,18.40
2022-08-17T09:38:42.557Z,16.90
2022-08-17T09:41:34.264Z,18.30
2022-08-17T09:44:26.082Z,18.30
2022-08-17T09:47:17.533Z,18.20
2022-08-17T09:50:11.663Z,18.30
2022-08-17T09:53:00.451Z,18.30
2022-08-17T09:55:59.712Z,18.30
2022-08-17T09:58:56.538Z,18.30
2022-08-17T10:01:46.010Z,18.40
2022-08-17T10:04:39.554Z,18.50
2022-08-17T10:07:32.631Z,18.60
2022-08-17T10:10:22.135Z,18.60
2022-08-17T10:13:15.883Z,18.70
2022-08-17T10:16:11.947Z,18.70
2022-08-17T10:19:07.415Z,18.60
2022-08-17T10:22:32.546Z,18.70
2022-08-17T10:25:54.284Z,18.70
2022-08-17T10:28:47.997Z,18.70
2022-08-17T10:31:40.865Z,18.90
2022-08-17T10:34:41.904Z,18.80
2022-08-17T10:37:46.739Z,19.00
2022-08-17T10:40:37.126Z,18.90
2022-08-17T10:43:33.084Z,19.00
2022-08-17T10:46:30.002Z,19.00
2022-08-17T10:49:29.853Z,19.00
2022-08-17T10:52:37.199Z,19.00
2022-08-17T10:55:29.407Z,19.20
2022-08-17T10:58:21.588Z,19.60
2022-08-17T11:01:13.590Z,19.20
2022-08-17T11:04:11.515Z,19.30
2022-08-17T11:07:05.168Z,18.60
2022-08-17T11:10:07.043Z,20.90
2022-08-17T11:13:01.339Z,19.60
2022-08-17T11:15:59.082Z,19.50
2022-08-17T11:19:05.130Z,19.70
2022-08-17T11:22:03.342Z,19.50
2022-08-17T11:24:52.195Z,19.70
2022-08-17T11:27:40.942Z,19.70
2022-08-17T11:30:44.428Z,19.90
2022-08-17T11:33:54.696Z,20.10
2022-08-17T11:37:06.563Z,20.20
2022-08-17T11:40:05.270Z,20.50
2022-08-17T11:43:00.259Z,20.90
2022-08-17T11:45:56.529Z,21.30
2022-08-17T11:49:12.003Z,21.70
2022-08-17T11:52:35.646Z,21.90
2022-08-17T11:55:44.925Z,22.00
2022-08-17T11:58:39.969Z,21.60
2022-08-17T12:01:46.561Z,21.50
2022-08-17T12:04:37.178Z,21.40
2022-08-17T12:07:32.164Z,21.80
2022-08-17T12:10:22.441Z,21.50
2022-08-17T12:13:15.886Z,20.00
2022-08-17T12:16:14.783Z,20.20
2022-08-17T12:19:09.155Z,21.10
2022-08-17T12:21:59.459Z,21.00
2022-08-17T12:24:51.806Z,20.90
2022-08-17T12:28:05.136Z,20.10
2022-08-17T12:30:58.779Z,21.40
2022-08-17T12:33:50.014Z,21.70
2022-08-17T12:36:37.598Z,22.00
2022-08-17T12:39:26.593Z,22.20
2022-08-17T12:42:26.739Z,22.40
2022-08-17T12:45:24.321Z,22.50
2022-08-17T12:48:23.912Z,22.60
2022-08-17T12:51:14.613Z,22.00
2022-08-17T12:54:07.218Z,21.90
2022-08-17T12:57:03.817Z,22.80
2022-08-17T12:59:53.446Z,22.00
2022-08-17T13:02:43.984Z,22.00
2022-08-17T13:05:36.374Z,21.90
2022-08-17T13:08:28.842Z,22.20
2022-08-17T13:11:20.762Z,22.30
2022-08-17T13:14:14.276Z,22.40
2022-08-17T13:17:11.120Z,21.70
2022-08-17T13:20:00.936Z,22.60
2022-08-17T13:22:54.470Z,22.70
2022-08-17T13:25:46.729Z,22.70
2022-08-17T13:28:37.728Z,22.60
2022-08-17T13:31:33.540Z,22.40
2022-08-17T13:34:51.384Z,22.40
2022-08-17T13:38:01.400Z,22.20
2022-08-17T13:40:53.373Z,21.90
2022-08-17T13:43:45.941Z,22.60
2022-08-17T13:46:35.636Z,21.50
2022-08-17T13:49:25.778Z,21.50
2022-08-17T13:52:40.075Z,21.40
2022-08-17T13:55:29.729Z,21.60
2022-08-17T13:58:24.417Z,21.50
2022-08-17T14:01:29.073Z,21.80
2022-08-17T14:04:18.337Z,22.10
2022-08-17T14:07:23.679Z,22.70
2022-08-17T14:10:15.732Z,22.90
2022-08-17T14:13:05.035Z,23.00
2022-08-17T14:15:56.021Z,23.20
2022-08-17T14:18:56.155Z,23.50
2022-08-17T14:21:46.745Z,23.80
2022-08-17T14:24:39.993Z,23.50
2022-08-17T14:27:51.980Z,23.20
2022-08-17T14:30:43.202Z,23.00
2022-08-17T14:33:32.414Z,22.70
2022-08-17T14:36:21.157Z,22.80
2022-08-17T14:39:09.568Z,22.70
2022-08-17T14:41:59.842Z,22.80
2022-08-17T14:44:48.002Z,23.00
2022-08-17T14:47:36.619Z,23.30
2022-08-17T14:50:25.949Z,23.40
2022-08-17T14:53:15.571Z,23.60
2022-08-17T14:56:03.291Z,23.70
2022-08-17T14:58:51.955Z,23.90
2022-08-17T15:01:39.603Z,24.00
2022-08-17T15:04:27.828Z,24.10
2022-08-17T15:07:17.049Z,24.10
2022-08-17T15:10:04.978Z,24.20
2022-08-17T15:12:53.403Z,24.40
2022-08-17T15:15:41.286Z,24.50
2022-08-17T15:18:31.169Z,24.60
2022-08-17T15:21:18.802Z,24.50
2022-08-17T15:24:09.492Z,24.40
2022-08-17T15:26:58.204Z,24.20
2022-08-17T15:29:49.274Z,24.00
2022-08-17T15:32:39.288Z,23.60
2022-08-17T15:35:29.046Z,23.30
2022-08-17T15:38:18.542Z,23.10
2022-08-17T15:41:08.792Z,22.80
2022-08-17T15:43:56.126Z,22.60
2022-08-17T15:46:44.009Z,22.50
2022-08-17T15:49:31.812Z,22.40
2022-08-17T15:52:38.173Z,22.40
2022-08-17T15:55:27.494Z,22.40
2022-08-17T15:58:20.383Z,22.40
2022-08-17T16:02:15.394Z,22.40
2022-08-17T16:04:49.179Z,22.50
2022-08-17T16:07:45.005Z,22.40
2022-08-17T16:10:37.193Z,22.50
2022-08-17T16:13:29.342Z,22.50
2022-08-17T16:16:29.143Z,22.50
2022-08-17T16:19:22.808Z,22.50
2022-08-17T16:22:11.554Z,22.50
2022-08-17T16:24:59.370Z,24.10
2022-08-17T16:27:48.155Z,22.50
2022-08-17T16:30:38.468Z,22.50
2022-08-17T16:33:29.166Z,22.50
2022-08-17T16:36:17.337Z,22.50
2022-08-17T16:39:05.540Z,22.40
2022-08-17T16:41:53.221Z,22.40
2022-08-17T16:44:41.171Z,22.60
2022-08-17T16:47:30.644Z,22.40
2022-08-17T16:50:20.602Z,22.50
2022-08-17T16:53:10.846Z,22.50
2022-08-17T16:55:58.816Z,22.40
2022-08-17T16:58:47.352Z,22.50
2022-08-17T17:01:39.996Z,22.50
2022-08-17T17:04:35.059Z,22.60
2022-08-17T17:07:35.632Z,22.60
2022-08-17T17:10:29.935Z,22.60
2022-08-17T17:13:20.640Z,22.50
2022-08-17T17:16:13.894Z,22.40
2022-08-17T17:19:09.742Z,22.40
2022-08-17T17:22:02.238Z,22.30
2022-08-17T17:25:00.707Z,22.20
2022-08-17T17:27:52.214Z,22.10
2022-08-17T17:30:48.585Z,22.10
2022-08-17T17:33:38.782Z,22.10
2022-08-17T17:36:28.605Z,21.90
2022-08-17T17:39:19.512Z,22.00
2022-08-17T17:42:10.295Z,22.00
2022-08-17T17:45:02.666Z,21.90
2022-08-17T17:47:54.006Z,21.90
2022-08-17T17:50:45.841Z,21.80
2022-08-17T17:53:41.735Z,21.80
2022-08-17T17:56:43.772Z,20.30
2022-08-17T17:59:43.766Z,21.90
2022-08-17T18:02:51.454Z,21.70
2022-08-17T18:05:53.208Z,22.10
2022-08-17T18:08:47.208Z,22.10
2022-08-17T18:11:51.568Z,22.20
2022-08-17T18:14:47.748Z,22.30
2022-08-17T18:17:37.002Z,22.30
2022-08-17T18:20:36.005Z,21.50
2022-08-17T18:23:35.290Z,22.20
2022-08-17T18:26:52.351Z,22.00
2022-08-17T18:29:47.721Z,21.90
2022-08-17T18:32:46.774Z,21.80
2022-08-17T18:35:38.310Z,21.70
2022-08-17T18:38:30.331Z,21.60
2022-08-17T18:41:24.483Z,21.70
2022-08-17T18:44:23.555Z,21.50
2022-08-17T18:47:19.395Z,21.50
2022-08-17T18:50:23.882Z,21.30
2022-08-17T18:53:38.120Z,21.70
2022-08-17T18:56:34.875Z,21.20
2022-08-17T18:59:26.820Z,21.30
2022-08-17T19:02:43.374Z,21.00
2022-08-17T19:05:42.098Z,20.80
2022-08-17T19:08:37.000Z,20.80
2022-08-17T19:11:30.425Z,21.20
2022-08-17T19:14:18.630Z,20.70
2022-08-17T19:17:10.611Z,20.60
2022-08-17T19:20:05.019Z,20.60
2022-08-17T19:23:05.559Z,20.50
2022-08-17T19:25:54.415Z,20.40
2022-08-17T19:28:48.511Z,20.40
2022-08-17T19:31:37.143Z,19.10
2022-08-17T19:34:33.856Z,20.20
2022-08-17T19:37:33.544Z,20.10
2022-08-17T19:40:51.796Z,20.00
2022-08-17T19:44:03.802Z,20.00
2022-08-17T19:46:59.566Z,20.00
2022-08-17T19:49:53.938Z,20.60
2022-08-17T19:52:50.246Z,18.70
2022-08-17T19:55:47.904Z,19.10
2022-08-17T19:58:43.370Z,19.80
2022-08-17T20:01:40.819Z,19.70
2022-08-17T20:04:44.067Z,19.70
2022-08-17T20:07:41.391Z,19.60
2022-08-17T20:10:39.759Z,19.50
2022-08-17T20:13:32.829Z,19.40
2022-08-17T20:16:24.861Z,19.30
2022-08-17T20:19:18.140Z,19.30
2022-08-17T20:22:15.853Z,19.20
2022-08-17T20:25:09.531Z,19.20
2022-08-17T20:28:06.383Z,19.00
2022-08-17T20:30:56.117Z,18.90
2022-08-17T20:33:44.034Z,19.00
2022-08-17T20:36:37.048Z,17.20
2022-08-17T20:39:34.033Z,18.80
2022-08-17T20:42:32.312Z,19.50
2022-08-17T20:45:41.267Z,18.70
2022-08-17T20:48:38.774Z,18.70
2022-08-17T20:51:29.842Z,18.60
2022-08-17T20:54:35.762Z,18.60
2022-08-17T20:57:42.195Z,19.50
2022-08-17T21:00:44.951Z,18.70
2022-08-17T21:03:51.859Z,18.50
2022-08-17T21:07:13.792Z,18.60
2022-08-17T21:10:12.894Z,19.20
2022-08-17T21:13:16.763Z,18.20
2022-08-17T21:16:15.664Z,18.30
2022-08-17T21:19:13.455Z,18.20
2022-08-17T21:22:08.677Z,17.80
2022-08-17T21:25:00.234Z,18.10
2022-08-17T21:27:56.932Z,19.30
2022-08-17T21:30:52.189Z,18.10
2022-08-17T21:33:43.625Z,18.10
2022-08-17T21:36:37.263Z,18.30
2022-08-17T21:39:35.129Z,18.10
2022-08-17T21:42:31.846Z,19.00
2022-08-17T21:45:28.152Z,18.00
2022-08-17T21:48:21.052Z,18.00
2022-08-17T21:51:10.613Z,18.00
2022-08-17T21:54:01.087Z,18.50
2022-08-17T21:56:49.789Z,18.10
2022-08-17T21:59:39.443Z,18.10
2022-08-17T22:02:30.485Z,18.10
2022-08-17T22:05:28.741Z,18.00
2022-08-17T22:08:22.547Z,18.00
2022-08-17T22:11:14.965Z,19.20
2022-08-17T22:14:05.666Z,17.80
2022-08-17T22:17:11.170Z,17.90
2022-08-17T22:20:03.427Z,17.90
2022-08-17T22:23:23.541Z,17.80
2022-08-17T22:26:15.845Z,17.90
2022-08-17T22:29:03.518Z,17.90
2022-08-17T22:31:56.417Z,17.80
2022-08-17T22:34:44.393Z,18.10
2022-08-17T22:37:32.448Z,18.70
2022-08-17T22:40:30.686Z,17.80
2022-08-17T22:43:26.385Z,17.80
2022-08-17T22:46:15.270Z,17.70
2022-08-17T22:49:05.906Z,17.80
2022-08-17T22:52:04.099Z,17.90
2022-08-17T22:55:17.995Z,19.40
2022-08-17T22:58:28.263Z,18.40
2022-08-17T23:01:26.987Z,17.80
2022-08-17T23:04:32.213Z,17.70
2022-08-17T23:07:21.091Z,18.20
2022-08-17T23:10:09.813Z,17.70
2022-08-17T23:13:00.095Z,17.70
2022-08-17T23:15:49.915Z,17.70
2022-08-17T23:18:39.954Z,17.70
2022-08-17T23:21:31.335Z,17.70
2022-08-17T23:24:27.570Z,17.50
2022-08-17T23:27:15.856Z,18.80
2022-08-17T23:30:03.855Z,17.60
2022-08-17T23:32:53.858Z,17.60
2022-08-17T23:35:44.704Z,17.60
2022-08-17T23:38:33.295Z,18.90
2022-08-17T23:41:23.277Z,17.60
2022-08-17T23:44:12.436Z,19.10
2022-08-17T23:47:02.524Z,18.70
2022-08-17T23:49:54.901Z,18.50
2022-08-17T23:52:46.871Z,16.70
2022-08-17T23:55:37.940Z,17.60
2022-08-17T23:58:29.647Z,17.70
